Time;durP1;ratioP1;P1;durP2;ratioP2;P2;SDS_P1;SDS_P2;PMS_P1;PMS_P2;Temp;Humidity;BMP_temperature;BMP_pressure;BME280_temperature;BME280_humidity;BME280_pressure;Samples;Min_cycle;Max_cycle;Signal;HPM_P1;HPM_P2
2022/09/19 00:01:55;;;;;;;2.53;0.70;;;;;;;15.40;56.18;100344.63;5035199;28;20048;-94
2022/09/19 00:04:29;;;;;;;1.35;1.02;;;;;;;15.64;56.24;100349.72;5052451;28;20049;-94
2022/09/19 00:06:58;;;;;;;2.47;0.70;;;;;;;15.62;55.82;100346.47;5024288;28;20511;-94
2022/09/19 00:09:31;;;;;;;2.03;0.90;;;;;;;15.51;56.86;100328.59;5030471;28;20295;-94
2022/09/19 00:12:01;;;;;;;3.40;1.17;;;;;;;15.59;56.69;100342.41;5035423;28;20045;-93
2022/09/19 00:14:33;;;;;;;1.00;0.90;;;;;;;15.49;57.77;100328.91;5052375;28;20045;-96
2022/09/19 00:17:07;;;;;;;1.60;0.77;;;;;;;15.54;56.31;100333.47;5022416;28;20500;-93
2022/09/19 00:19:36;;;;;;;2.30;1.25;;;;;;;15.54;58.32;100342.53;5035958;28;20049;-96
2022/09/19 00:22:07;;;;;;;1.25;0.90;;;;;;;15.53;57.17;100332.66;5052160;28;20045;-95
2022/09/19 00:24:48;;;;;;;3.47;0.93;;;;;;;15.59;57.61;100319.50;5036021;28;20408;-95
2022/09/19 00:27:20;;;;;;;2.58;1.17;;;;;;;15.61;57.02;100333.00;5032639;28;20052;-96
2022/09/19 00:29:49;;;;;;;1.95;1.13;;;;;;;15.72;57.67;100328.81;5051965;28;20037;-94
2022/09/19 00:32:17;;;;;;;0.98;0.85;;;;;;;15.72;56.82;100329.63;5051954;28;20412;-95
2022/09/19 00:34:48;;;;;;;0.90;0.80;;;;;;;15.76;55.45;100320.69;5052314;28;20041;-93
2022/09/19 00:37:18;;;;;;;1.80;0.80;;;;;;;15.74;56.60;100318.25;5034866;28;20048;-93
2022/09/19 00:39:46;;;;;;;1.38;0.95;;;;;;;15.71;58.13;100307.88;5051908;28;20049;-94
2022/09/19 00:42:18;;;;;;;0.80;0.80;;;;;;;15.69;56.93;100290.84;5034604;28;20049;-91
2022/09/19 00:44:52;;;;;;;3.13;1.30;;;;;;;15.80;55.83;100294.09;5035085;28;20057;-93
2022/09/19 00:47:25;;;;;;;1.30;0.80;;;;;;;15.81;56.61;100293.78;5045768;28;20571;-94
2022/09/19 00:49:56;;;;;;;1.95;1.05;;;;;;;15.79;54.93;100296.03;5068976;28;20056;-91
2022/09/19 00:52:31;;;;;;;0.70;0.50;;;;;;;15.69;54.11;100290.84;5040379;28;20615;-92
2022/09/19 00:55:00;;;;;;;1.20;0.75;;;;;;;15.62;56.41;100279.44;5034444;28;20052;-92
2022/09/19 00:57:39;;;;;;;2.72;1.05;;;;;;;15.48;57.37;100274.88;5047025;28;20057;-93
2022/09/19 01:00:08;;;;;;;5.00;1.30;;;;;;;15.49;57.20;100282.03;5056415;28;20071;-91
2022/09/19 01:02:36;;;;;;;1.17;1.02;;;;;;;15.42;57.19;100273.41;5057197;28;20057;-92
2022/09/19 01:05:07;;;;;;;0.90;0.90;;;;;;;15.65;56.63;100284.34;5050830;28;20384;-92
2022/09/19 01:08:27;;;;;;;0.75;0.75;;;;;;;15.49;56.69;100282.03;5051043;28;20053;-92
2022/09/19 01:11:15;;;;;;;1.38;1.00;;;;;;;15.36;58.07;100277.44;5007915;28;20480;-93
2022/09/19 01:13:53;;;;;;;0.75;0.75;;;;;;;15.37;57.10;100279.91;5051053;28;20060;-90
2022/09/19 01:16:41;;;;;;;1.15;0.65;;;;;;;15.38;56.53;100269.66;5033959;28;20046;-91
2022/09/19 01:19:43;;;;;;;1.92;1.10;;;;;;;15.69;55.92;100271.53;5045301;28;20060;-90
2022/09/19 01:22:28;;;;;;;1.17;0.80;;;;;;;15.54;56.41;100265.31;5021048;28;20049;-91
2022/09/19 01:25:11;;;;;;;1.73;0.80;;;;;;;15.30;57.78;100268.53;5017047;28;20049;-91
2022/09/19 01:28:21;;;;;;;0.85;0.60;;;;;;;15.28;57.67;100271.59;5017538;28;20053;-90
2022/09/19 01:31:22;;;;;;;1.15;0.98;;;;;;;15.22;57.13;100283.06;5034801;28;20045;-90
2022/09/19 01:33:57;;;;;;;;;;;;;;;15.24;56.15;100281.63;5044771;28;20488;-91
2022/09/19 01:36:28;;;;;;;2.83;1.05;;;;;;;15.22;55.46;100283.06;5033910;28;19925;-91
2022/09/19 01:38:58;;;;;;;1.48;0.73;;;;;;;15.20;55.17;100274.31;5080829;28;20049;-90
2022/09/19 01:41:32;;;;;;;1.08;0.90;;;;;;;15.21;55.69;100264.91;5075232;28;20048;-91
2022/09/19 01:44:08;;;;;;;0.98;0.82;;;;;;;15.04;56.58;100248.00;5022009;28;20056;-91
2022/09/19 01:46:59;;;;;;;2.72;1.17;;;;;;;14.87;57.45;100258.97;5055026;28;20053;-92
2022/09/19 01:49:54;;;;;;;1.10;1.00;;;;;;;15.07;57.54;100262.28;5023591;28;20049;-90
2022/09/19 01:53:01;;;;;;;1.38;1.00;;;;;;;15.15;57.57;100267.03;5069455;28;20044;-90
2022/09/19 01:56:06;;;;;;;1.17;0.80;;;;;;;15.20;58.47;100269.59;5052732;28;20063;-90
2022/09/19 01:58:42;;;;;;;1.63;0.77;;;;;;;15.18;57.76;100260.84;5036257;28;20076;-87
2022/09/19 02:01:22;;;;;;;1.17;1.08;;;;;;;14.98;58.26;100263.06;5053122;28;20041;-90
2022/09/19 02:03:55;;;;;;;2.63;0.98;;;;;;;15.02;56.97;100264.03;5069507;28;20064;-90
2022/09/19 02:06:37;;;;;;;0.90;0.90;;;;;;;14.96;57.54;100268.06;5069085;28;21592;-91
2022/09/19 02:09:22;;;;;;;1.88;0.80;;;;;;;14.89;58.73;100270.47;5068449;28;20045;-90
2022/09/19 02:11:52;;;;;;;2.85;0.80;;;;;;;14.75;59.37;100276.88;5056605;28;20384;-90
2022/09/19 02:14:27;;;;;;;2.65;1.00;;;;;;;14.64;59.87;100269.97;5052690;28;20049;-92
2022/09/19 02:17:06;;;;;;;1.67;1.08;;;;;;;14.60;59.40;100280.00;5063633;28;20040;-93
2022/09/19 02:19:45;;;;;;;0.93;0.93;;;;;;;14.52;59.77;100279.63;5037294;28;20041;-93
2022/09/19 02:22:31;;;;;;;2.50;1.05;;;;;;;14.45;61.25;100271.00;5046011;28;20052;-94
2022/09/19 02:25:08;;;;;;;1.00;0.90;;;;;;;14.44;60.03;100266.63;5035213;28;20064;-92
2022/09/19 02:27:45;;;;;;;1.73;1.00;;;;;;;14.44;59.06;100272.13;5053055;28;20041;-91
2022/09/19 02:30:13;;;;;;;1.17;0.70;;;;;;;14.52;59.42;100271.38;5038153;28;20048;-93
2022/09/19 02:32:51;;;;;;;1.02;0.98;;;;;;;14.61;60.06;100259.59;5036530;28;20053;-93
2022/09/19 02:35:38;;;;;;;2.30;0.80;;;;;;;14.45;60.63;100268.25;5037631;28;20056;-94
2022/09/19 02:38:14;;;;;;;2.05;1.40;;;;;;;14.52;62.75;100270.56;5041394;28;20045;-94
2022/09/19 02:41:12;;;;;;;2.42;1.00;;;;;;;14.50;61.47;100273.63;5040828;28;20065;-94
2022/09/19 02:43:46;;;;;;;1.90;1.13;;;;;;;14.49;62.03;100269.25;5019523;28;20041;-94
2022/09/19 02:46:30;;;;;;;3.20;1.00;;;;;;;14.40;61.71;100267.56;5038167;28;20053;-94
2022/09/19 02:49:10;;;;;;;1.25;1.13;;;;;;;14.46;60.93;100264.38;5042300;28;20056;-94
2022/09/19 02:51:45;;;;;;;2.30;0.80;;;;;;;14.29;62.22;100256.81;5037929;28;20059;-94
2022/09/19 02:54:21;;;;;;;1.13;0.93;;;;;;;14.40;63.34;100260.13;5036262;28;20423;-96
2022/09/19 02:56:53;;;;;;;2.63;1.30;;;;;;;14.25;61.85;100253.06;5040403;28;20048;-93
2022/09/19 02:59:28;;;;;;;1.98;1.25;;;;;;;14.28;62.71;100260.69;5047432;28;20041;-95
2022/09/19 03:02:15;;;;;;;2.83;1.00;;;;;;;14.32;62.49;100256.19;5025323;28;20048;-95
2022/09/19 03:04:49;;;;;;;2.33;1.50;;;;;;;14.25;62.53;100253.06;5027635;28;20403;-96
2022/09/19 03:07:23;;;;;;;1.13;1.10;;;;;;;14.15;64.36;100251.38;5041086;28;20396;-95
2022/09/19 03:10:05;;;;;;;2.58;1.23;;;;;;;14.03;63.42;100257.41;5036395;28;20060;-95
2022/09/19 03:12:50;;;;;;;1.42;1.25;;;;;;;13.97;63.53;100251.22;5036960;28;20396;-92
2022/09/19 03:15:33;;;;;;;2.20;1.33;;;;;;;14.05;63.34;100248.84;5036764;28;20503;-95
2022/09/19 03:18:05;;;;;;;1.40;1.23;;;;;;;14.07;63.85;100268.59;5037582;28;20399;-94
2022/09/19 03:20:37;;;;;;;1.30;1.17;;;;;;;14.01;64.35;100250.59;5044913;28;20049;-95
2022/09/19 03:23:07;;;;;;;1.25;1.17;;;;;;;13.79;64.77;100246.72;5028262;28;20380;-95
2022/09/19 03:25:36;;;;;;;2.97;1.15;;;;;;;13.88;64.75;100253.09;5052876;28;20056;-95
2022/09/19 03:28:05;;;;;;;2.45;1.67;;;;;;;13.81;64.66;100244.44;5036338;28;20049;-94
2022/09/19 03:30:35;;;;;;;1.52;1.15;;;;;;;13.89;64.94;100251.97;5050426;28;20044;-95
2022/09/19 03:33:04;;;;;;;2.38;1.35;;;;;;;13.90;62.85;100250.84;5034038;28;20072;-91
2022/09/19 03:35:32;;;;;;;1.60;1.30;;;;;;;13.88;64.05;100239.34;5051489;28;20056;-92
2022/09/19 03:38:11;;;;;;;1.17;1.08;;;;;;;13.92;64.03;100259.59;5053675;28;20045;-93
2022/09/19 03:40:42;;;;;;;1.35;1.13;;;;;;;13.90;64.08;100253.59;5038865;28;20053;-91
2022/09/19 03:43:11;;;;;;;1.50;1.40;;;;;;;13.89;62.71;100257.47;5051778;28;20044;-92
2022/09/19 03:45:39;;;;;;;2.42;1.17;;;;;;;13.94;62.83;100254.59;5034979;28;20052;-93
2022/09/19 03:48:08;;;;;;;1.90;1.63;;;;;;;13.81;64.22;100245.28;5025740;28;20049;-94
2022/09/19 03:50:36;;;;;;;2.05;1.27;;;;;;;13.83;63.59;100265.03;5040624;28;20041;-93
2022/09/19 03:53:13;;;;;;;1.60;0.85;;;;;;;13.77;63.92;100255.25;5035374;28;20053;-92
2022/09/19 03:55:41;;;;;;;1.70;1.02;;;;;;;13.64;64.01;100245.91;5035237;28;20053;-91
2022/09/19 03:58:14;;;;;;;1.88;1.65;;;;;;;13.70;63.22;100238.38;5035037;28;20052;-92
2022/09/19 04:00:42;;;;;;;3.22;1.70;;;;;;;13.68;64.96;100246.09;5059498;28;20052;-93
2022/09/19 04:03:14;;;;;;;3.20;1.67;;;;;;;13.69;63.34;100243.06;5052069;28;20044;-93
2022/09/19 04:05:42;;;;;;;1.63;1.27;;;;;;;13.77;63.70;100247.00;5052061;28;20045;-95
2022/09/19 04:08:11;;;;;;;1.45;1.35;;;;;;;13.73;63.20;100243.25;5035671;28;20048;-93
2022/09/19 04:10:42;;;;;;;2.15;1.58;;;;;;;13.73;63.86;100248.75;5034415;28;20048;-93
2022/09/19 04:13:11;;;;;;;4.22;1.48;;;;;;;13.74;63.57;100249.56;5046742;28;20049;-93
2022/09/19 04:15:40;;;;;;;2.17;1.73;;;;;;;13.63;64.54;100247.03;5044003;28;20495;-93
2022/09/19 04:18:10;;;;;;;5.45;2.03;;;;;;;13.63;64.22;100260.78;5064100;28;20045;-93
2022/09/19 04:20:39;;;;;;;1.25;1.15;;;;;;;13.53;64.15;100250.00;5045249;28;20053;-93
2022/09/19 04:23:27;;;;;;;3.90;1.35;;;;;;;13.60;63.72;100260.59;5044773;28;20056;-93
2022/09/19 04:26:14;;;;;;;5.00;1.20;;;;;;;13.68;65.69;100268.09;5064981;28;20033;-91
2022/09/19 04:28:47;;;;;;;1.30;0.95;;;;;;;13.65;63.92;100269.53;5042882;28;20076;-93
2022/09/19 04:31:16;;;;;;;1.85;1.30;;;;;;;13.62;63.13;100269.34;5039643;28;20053;-93
2022/09/19 04:33:47;;;;;;;2.05;1.40;;;;;;;13.64;63.97;100272.63;5041216;28;20109;-94
2022/09/19 04:36:16;;;;;;;2.63;1.60;;;;;;;13.62;63.92;100267.41;5039275;28;20053;-93
2022/09/19 04:38:44;;;;;;;3.10;1.35;;;;;;;13.55;63.82;100258.78;5070976;28;20067;-93
2022/09/19 04:41:21;;;;;;;2.78;1.50;;;;;;;13.66;63.63;100259.34;5055118;28;20479;-80
2022/09/19 04:43:50;;;;;;;1.42;1.27;;;;;;;13.61;64.07;100256.72;5055230;28;20067;-80
2022/09/19 04:46:28;;;;;;;1.95;1.42;;;;;;;13.51;63.99;100263.25;5053252;28;20041;-80
2022/09/19 04:49:04;;;;;;;1.85;1.42;;;;;;;13.45;63.92;100246.03;5078932;28;20051;-80
2022/09/19 04:51:36;;;;;;;2.78;1.17;;;;;;;13.49;64.57;100271.81;5068191;28;20033;-80
2022/09/19 04:54:05;;;;;;;3.55;1.23;;;;;;;13.48;64.24;100270.19;5074502;28;20044;-81
2022/09/19 04:56:33;;;;;;;2.30;1.48;;;;;;;13.53;64.71;100261.00;5069400;28;20391;-81
2022/09/19 04:59:03;;;;;;;2.60;1.40;;;;;;;13.50;63.33;100262.44;5062240;28;20517;-81
2022/09/19 05:01:33;;;;;;;2.40;1.95;;;;;;;13.48;64.33;100274.88;5058870;28;20052;-79
2022/09/19 05:04:04;;;;;;;1.52;1.38;;;;;;;13.44;63.81;100286.44;5068225;28;20041;-79
2022/09/19 05:06:32;;;;;;;2.60;1.80;;;;;;;13.61;63.91;100289.72;5068983;28;20048;-81
2022/09/19 05:09:02;;;;;;;2.05;1.63;;;;;;;13.59;63.74;100292.75;5080975;28;20051;-81
2022/09/19 05:11:33;;;;;;;1.90;1.70;;;;;;;13.41;65.38;100291.75;5060255;28;20052;-82
2022/09/19 05:14:01;;;;;;;1.75;1.45;;;;;;;13.34;65.13;100292.16;5053732;28;20037;-81
2022/09/19 05:16:33;;;;;;;1.77;1.65;;;;;;;13.55;63.70;100298.06;5077170;28;20041;-80
2022/09/19 05:19:04;;;;;;;1.35;1.25;;;;;;;13.74;63.65;100296.31;5077560;28;20055;-81
2022/09/19 05:21:33;;;;;;;3.63;1.95;;;;;;;13.70;64.32;100298.88;5061340;28;20596;-81
2022/09/19 05:24:02;;;;;;;6.68;1.55;;;;;;;13.67;63.46;100303.06;5073088;28;20394;-81
2022/09/19 05:26:30;;;;;;;2.70;1.80;;;;;;;13.74;62.99;100296.31;5062711;28;20049;-81
2022/09/19 05:29:07;;;;;;;1.30;1.20;;;;;;;13.83;62.57;100313.72;5067290;28;20416;-81
2022/09/19 05:31:46;;;;;;;1.95;1.70;;;;;;;13.73;63.08;100308.44;5056170;28;20045;-81
2022/09/19 05:34:22;;;;;;;1.50;1.30;;;;;;;13.74;63.30;100297.13;5051897;28;20048;-81
2022/09/19 05:36:51;;;;;;;2.47;1.48;;;;;;;13.89;63.18;100312.47;5071987;28;20033;-80
2022/09/19 05:39:22;;;;;;;2.63;1.50;;;;;;;14.01;63.99;100320.19;5056470;28;20052;-79
2022/09/19 05:42:10;;;;;;;3.00;1.90;;;;;;;14.14;62.72;100314.97;5052764;28;20056;-81
2022/09/19 05:44:45;;;;;;;2.15;1.70;;;;;;;14.41;60.95;100318.75;5052587;28;20501;-79
2022/09/19 05:47:14;;;;;;;1.10;1.00;;;;;;;14.58;61.37;100320.81;5046722;28;20052;-75
2022/09/19 05:49:42;;;;;;;2.25;1.60;;;;;;;15.23;59.60;100331.56;5052820;28;20056;-75
2022/09/19 05:54:58;;;;;;;3.38;1.73;;;;;;;16.22;55.85;100335.06;5052517;28;20391;-75
2022/09/19 05:57:42;;;;;;;1.63;1.42;;;;;;;16.44;55.58;100336.03;5068974;28;20049;-75
2022/09/19 06:00:11;;;;;;;3.25;1.50;;;;;;;16.87;54.53;100343.44;5069262;28;20037;-75
2022/09/19 06:02:42;;;;;;;3.25;1.17;;;;;;;16.81;54.43;100344.75;5052849;28;20049;-74
2022/09/19 06:05:12;;;;;;;3.28;1.60;;;;;;;17.01;53.94;100339.69;5052329;28;20041;-75
2022/09/19 06:07:42;;;;;;;2.45;1.60;;;;;;;16.93;53.87;100346.84;5035490;28;20064;-75
2022/09/19 06:10:12;;;;;;;3.63;1.67;;;;;;;17.17;53.67;100349.06;5052610;28;20048;-74
2022/09/19 06:12:40;;;;;;;2.25;1.40;;;;;;;17.17;53.65;100351.84;5068872;28;20399;-75
2022/09/19 06:15:09;;;;;;;1.85;1.27;;;;;;;17.04;53.87;100352.88;5068646;28;20045;-75
2022/09/19 06:17:38;;;;;;;1.52;1.35;;;;;;;17.18;53.34;100345.19;5068459;28;20590;-75
2022/09/19 06:20:16;;;;;;;1.65;1.33;;;;;;;17.54;52.74;100348.59;5051712;28;20500;-75
2022/09/19 06:22:47;;;;;;;1.50;1.10;;;;;;;17.89;51.46;100346.78;5068149;28;20052;-75
2022/09/19 06:25:19;;;;;;;3.58;1.60;;;;;;;18.04;50.90;100342.63;5068584;28;20033;-75
2022/09/19 06:27:55;;;;;;;1.92;1.73;;;;;;;18.00;50.62;100354.34;5068200;28;20049;-75
2022/09/19 06:30:26;;;;;;;2.17;1.55;;;;;;;17.96;51.70;100347.88;5050941;28;20057;-74
2022/09/19 06:33:18;;;;;;;4.05;1.88;;;;;;;18.24;51.31;100357.66;5067875;28;20048;-75
2022/09/19 06:35:59;;;;;;;6.97;2.28;;;;;;;17.99;52.16;100347.19;5051745;28;20052;-75
2022/09/19 06:38:31;;;;;;;3.38;2.55;;;;;;;18.33;51.42;100363.91;5067940;28;20061;-75
2022/09/19 06:41:14;;;;;;;7.60;3.45;;;;;;;18.35;50.93;100369.94;5067799;28;20052;-74
2022/09/19 06:43:57;;;;;;;6.30;3.00;;;;;;;18.44;51.44;100367.09;5052840;28;20053;-75
2022/09/19 06:46:44;;;;;;;4.35;2.22;;;;;;;18.27;51.60;100368.88;5061202;28;20064;-75
2022/09/19 06:49:31;;;;;;;7.03;2.15;;;;;;;18.49;51.33;100378.00;5071940;28;20059;-75
2022/09/19 06:52:31;;;;;;;2.15;1.70;;;;;;;18.59;50.78;100381.47;5048631;28;20056;-75
2022/09/19 06:55:01;;;;;;;5.75;2.28;;;;;;;18.54;50.87;100377.75;5054960;28;20060;-75
2022/09/19 06:57:29;;;;;;;3.63;2.10;;;;;;;18.67;50.43;100375.03;5071266;28;20051;-75
2022/09/19 06:59:57;;;;;;;3.00;1.90;;;;;;;18.84;50.55;100373.25;5054694;28;20036;-75
2022/09/19 07:02:24;;;;;;;3.50;1.95;;;;;;;18.78;49.82;100380.97;5072571;28;20513;-75
2022/09/19 07:04:52;;;;;;;2.53;2.20;;;;;;;18.85;50.23;100380.41;5072218;28;20044;-75
2022/09/19 07:07:43;;;;;;;2.95;1.92;;;;;;;18.91;50.06;100381.81;5054283;28;20126;-75
2022/09/19 07:10:11;;;;;;;4.22;2.25;;;;;;;18.96;50.66;100387.16;5054089;28;20055;-75
2022/09/19 07:12:41;;;;;;;6.82;2.42;;;;;;;18.98;50.35;100393.19;5054285;28;20044;-75
2022/09/19 07:15:09;;;;;;;3.70;2.53;;;;;;;19.23;49.09;100389.66;5072126;28;20047;-75
2022/09/19 07:17:37;;;;;;;4.10;2.50;;;;;;;19.34;48.61;100404.72;5071881;28;20411;-75
2022/09/19 07:20:06;;;;;;;2.75;2.05;;;;;;;19.52;49.77;100401.75;5054083;28;20047;-76
2022/09/19 07:22:42;;;;;;;2.78;1.85;;;;;;;19.71;47.64;100396.41;5069760;28;20044;-76
2022/09/19 07:25:37;;;;;;;4.50;2.53;;;;;;;19.76;47.61;100397.34;5056798;28;20052;-76
2022/09/19 07:28:08;;;;;;;3.58;2.47;;;;;;;19.81;47.73;100403.50;5053449;28;20131;-76
2022/09/19 07:30:37;;;;;;;3.45;2.17;;;;;;;19.85;47.04;100409.16;5070725;28;20060;-76
2022/09/19 07:33:09;;;;;;;5.50;2.85;;;;;;;20.04;46.62;100414.13;5071792;28;20043;-76
2022/09/19 07:35:40;;;;;;;5.15;2.95;;;;;;;19.98;46.93;100415.53;5070515;28;20442;-76
2022/09/19 07:38:13;;;;;;;4.70;2.30;;;;;;;19.86;47.35;100419.09;5054408;28;20047;-76
2022/09/19 07:41:07;;;;;;;6.18;2.50;;;;;;;20.16;46.48;100426.38;5069606;28;20053;-76
2022/09/19 07:43:52;;;;;;;3.50;2.65;;;;;;;20.17;45.79;100422.44;5053562;28;20398;-76
2022/09/19 07:47:26;;;;;;;8.75;3.25;;;;;;;20.10;46.79;100429.41;5071615;28;20040;-76
2022/09/19 07:49:44;;;;;;;8.13;3.20;;;;;;;20.11;46.99;100431.03;5070344;28;20054;-76
2022/09/19 07:52:31;;;;;;;5.57;2.58;;;;;;;20.24;46.72;100442.13;5071011;28;20048;-76
2022/09/19 07:54:59;;;;;;;3.80;2.78;;;;;;;20.32;47.37;100449.53;5070101;28;20045;-76
2022/09/19 07:57:29;;;;;;;5.88;3.03;;;;;;;20.37;46.04;100454.03;5053575;28;20049;-75
2022/09/19 07:59:57;;;;;;;3.67;2.58;;;;;;;20.54;45.92;100450.97;5070219;28;20057;-75
2022/09/19 08:02:25;;;;;;;4.18;2.80;;;;;;;20.49;46.67;100447.63;5069320;28;20052;-76
2022/09/19 08:04:54;;;;;;;6.25;2.95;;;;;;;20.79;45.56;100452.88;5053509;28;20048;-76
2022/09/19 08:07:23;;;;;;;5.47;2.70;;;;;;;20.96;44.83;100459.34;5053160;28;20049;-75
2022/09/19 08:09:52;;;;;;;3.92;2.90;;;;;;;20.73;45.27;100468.19;5053491;28;20047;-76
2022/09/19 08:12:24;;;;;;;5.88;3.72;;;;;;;20.65;46.13;100473.56;5053554;28;20103;-76
2022/09/19 08:15:17;;;;;;;4.10;2.72;;;;;;;20.77;45.63;100474.69;5070281;28;20036;-76
2022/09/19 08:17:59;;;;;;;4.43;3.08;;;;;;;20.91;45.19;100472.31;5053673;28;20049;-75
2022/09/19 08:20:33;;;;;;;3.40;2.22;;;;;;;20.99;44.76;100484.47;5050547;28;20407;-76
2022/09/19 08:23:04;;;;;;;6.15;3.08;;;;;;;21.16;44.88;100477.00;5052796;28;20062;-76
2022/09/19 08:25:35;;;;;;;5.50;2.53;;;;;;;21.29;44.03;100474.94;5070337;28;20045;-76
2022/09/19 08:28:04;;;;;;;6.90;3.05;;;;;;;21.31;44.14;100480.97;5053274;28;20056;-75
2022/09/19 08:30:33;;;;;;;6.57;2.67;;;;;;;21.25;43.83;100483.19;5070118;28;20049;-75
2022/09/19 08:33:03;;;;;;;4.90;3.13;;;;;;;21.41;43.72;100479.63;5070115;28;20033;-76
2022/09/19 08:35:37;;;;;;;7.25;3.30;;;;;;;21.39;44.60;100485.56;5069513;28;20056;-75
2022/09/19 08:38:08;;;;;;;6.03;3.70;;;;;;;21.19;44.88;100491.00;5053336;28;20049;-75
2022/09/19 08:40:54;;;;;;;6.53;3.50;;;;;;;21.12;45.02;100482.44;5069541;28;20075;-75
2022/09/19 08:43:44;;;;;;;4.93;3.20;;;;;;;20.84;45.66;100483.22;5070074;28;20067;-76
2022/09/19 08:46:36;;;;;;;5.57;3.03;;;;;;;21.15;45.08;100500.38;5049696;28;20064;-75
2022/09/19 08:49:18;;;;;;;5.50;3.10;;;;;;;21.51;44.70;100487.44;5051179;28;20073;-76
2022/09/19 08:51:49;;;;;;;2.78;2.20;;;;;;;;;;5065864;28;20403;-76
2022/09/19 08:54:32;;;;;;;7.13;3.65;;;;;;;21.75;44.08;100497.66;5050724;28;20455;-76
2022/09/19 08:57:20;;;;;;;4.18;2.67;;;;;;;21.94;43.06;100498.13;5066409;28;20049;-74
2022/09/19 08:59:56;;;;;;;6.03;2.72;;;;;;;21.99;42.83;100501.41;5049811;28;20048;-76
2022/09/19 09:02:46;;;;;;;;;;;;;;;22.07;42.72;100496.84;5067135;28;20056;-75
2022/09/19 09:05:57;;;;;;;2.30;2.10;;;;;;;21.93;42.44;100510.41;5066672;28;19924;-75
2022/09/19 09:08:51;;;;;;;5.20;2.83;;;;;;;22.07;42.45;100515.53;5053330;28;20048;-76
2022/09/19 09:11:52;;;;;;;6.45;3.35;;;;;;;22.25;42.31;100504.81;5054730;28;20059;-75
2022/09/19 09:14:58;;;;;;;5.22;3.63;;;;;;;21.98;41.30;100502.59;5070034;28;20049;-75
2022/09/19 09:17:47;;;;;;;5.28;2.78;;;;;;;22.19;42.40;100507.06;5053377;28;20057;-73
2022/09/19 09:20:24;;;;;;;5.60;2.80;;;;;;;22.38;42.52;100508.31;5069652;28;20040;-73
2022/09/19 09:23:16;;;;;;;6.30;3.65;;;;;;;22.41;42.22;100511.19;5069934;28;20045;-76
2022/09/19 09:26:21;;;;;;;6.00;3.80;;;;;;;21.92;43.39;100509.59;5057665;28;20060;-72
2022/09/19 09:29:11;;;;;;;7.43;3.78;;;;;;;22.44;43.23;100506.84;5052154;28;20060;-73
2022/09/19 09:31:54;;;;;;;5.95;3.20;;;;;;;22.65;41.99;100516.88;5069286;28;20404;-73
2022/09/19 09:34:42;;;;;;;4.45;2.85;;;;;;;22.70;41.79;100513.81;5055579;28;20045;-75
2022/09/19 09:37:26;;;;;;;3.80;2.88;;;;;;;22.81;41.58;100512.06;5052697;28;20060;-74
2022/09/19 09:41:44;;;;;;;4.97;3.05;;;;;;;22.66;42.11;100518.50;5069179;28;20056;-74
2022/09/19 09:43:14;;;;;;;6.32;3.35;;;;;;;22.76;43.13;100511.53;5052424;28;20058;-74
2022/09/19 09:45:49;;;;;;;2.95;2.65;;;;;;;22.99;41.66;100511.63;5053097;28;20037;-74
2022/09/19 09:48:34;;;;;;;4.93;3.28;;;;;;;22.98;42.24;100515.59;5056102;28;20056;-74
2022/09/19 09:51:21;;;;;;;8.93;2.92;;;;;;;22.97;41.53;100511.19;5055526;28;20407;-74
2022/09/19 09:57:53;;;;;;;5.65;2.58;;;;;;;23.27;41.29;100509.78;5050249;28;20059;-74
2022/09/19 10:03:43;;;;;;;3.75;3.08;;;;;;;23.18;41.09;100516.38;5055875;28;20522;-74
2022/09/19 10:06:32;;;;;;;6.60;3.30;;;;;;;23.28;41.38;100515.00;5055630;28;20039;-74
2022/09/19 10:09:22;;;;;;;4.63;2.83;;;;;;;23.57;41.23;100511.97;5072320;28;20056;-74
2022/09/19 10:12:14;;;;;;;5.35;2.97;;;;;;;23.72;41.08;100522.22;5055489;28;20041;-74
2022/09/19 10:15:13;;;;;;;3.30;2.72;;;;;;;23.87;40.10;100517.69;5072105;28;20530;-74
2022/09/19 10:17:49;;;;;;;5.60;3.00;;;;;;;23.91;40.04;100528.09;5055164;28;20051;-74
2022/09/19 10:20:25;;;;;;;6.32;2.95;;;;;;;23.84;39.85;100523.19;5071358;28;20044;-85
2022/09/19 10:22:59;;;;;;;5.43;3.10;;;;;;;23.46;41.85;100520.16;5039951;28;20056;-84
2022/09/19 10:25:30;;;;;;;4.63;3.00;;;;;;;23.32;39.66;100529.84;5055103;28;20056;-86
2022/09/19 10:28:17;;;;;;;5.57;2.72;;;;;;;23.44;40.91;100528.91;5055332;28;20052;-85
2022/09/19 10:31:05;;;;;;;7.10;3.22;;;;;;;23.42;40.97;100520.06;5055130;28;20055;-83
2022/09/19 10:33:39;;;;;;;6.03;3.72;;;;;;;23.45;40.65;100524.09;5038471;28;20045;-85
2022/09/19 10:36:32;;;;;;;3.25;2.80;;;;;;;23.54;40.43;100523.88;5038055;28;20052;-85
2022/09/19 10:39:09;;;;;;;;;;;;;;;23.59;40.37;100524.38;5027343;28;20049;-83
2022/09/19 10:41:40;;;;;;;5.25;2.42;;;;;;;23.70;41.01;100523.78;5049046;28;20080;-84
2022/09/19 10:44:22;;;;;;;5.05;3.10;;;;;;;23.56;40.17;100533.50;5035913;28;20392;-85
2022/09/19 10:47:03;;;;;;;5.55;2.45;;;;;;;23.72;40.61;100540.97;5037944;28;20103;-84
2022/09/19 10:49:52;;;;;;;3.40;2.60;;;;;;;23.75;39.34;100535.44;5054930;28;20048;-84
2022/09/19 10:52:33;;;;;;;6.45;2.58;;;;;;;23.78;40.52;100533.88;5044846;28;20055;-85
2022/09/19 10:55:22;;;;;;;4.53;2.65;;;;;;;23.77;39.53;100535.06;5033395;28;20399;-83
2022/09/19 10:58:03;;;;;;;3.15;2.22;;;;;;;23.90;38.90;100530.09;5052209;28;20053;-86
2022/09/19 11:00:54;;;;;;;4.07;2.60;;;;;;;24.13;39.06;100535.69;5047958;28;20051;-85
2022/09/19 11:03:32;;;;;;;4.05;2.85;;;;;;;24.12;36.82;100536.88;5029745;28;20053;-85
2022/09/19 11:06:16;;;;;;;4.05;2.35;;;;;;;24.31;37.94;100524.00;5050203;28;20052;-85
2022/09/19 11:08:51;;;;;;;3.72;2.67;;;;;;;24.26;39.10;100527.09;5038808;28;20048;-85
2022/09/19 11:11:48;;;;;;;6.32;2.90;;;;;;;24.21;38.89;100524.63;5038033;28;20061;-85
2022/09/19 11:14:41;;;;;;;3.90;2.83;;;;;;;24.23;37.81;100534.25;5037725;28;20052;-85
2022/09/19 11:17:32;;;;;;;3.85;2.50;;;;;;;24.39;38.63;100531.28;5025942;28;20051;-86
2022/09/19 11:20:23;;;;;;;3.80;2.67;;;;;;;24.50;37.25;100537.06;5051976;28;20049;-88
2022/09/19 11:23:21;;;;;;;5.05;2.15;;;;;;;24.52;37.31;100531.91;5054137;28;20052;-87
2022/09/19 11:26:03;;;;;;;2.80;2.10;;;;;;;24.68;36.89;100523.31;5038089;28;20048;-85
2022/09/19 11:29:06;;;;;;;3.42;2.22;;;;;;;24.55;36.77;100527.53;5054256;28;20048;-84
2022/09/19 11:31:47;;;;;;;4.30;2.47;;;;;;;24.49;34.74;100534.66;5038407;28;20055;-86
2022/09/19 11:34:47;;;;;;;3.30;1.90;;;;;;;24.60;35.24;100530.00;5054481;28;20044;-85
2022/09/19 11:37:53;;;;;;;3.50;1.88;;;;;;;24.63;33.26;100532.03;5054362;28;20055;-86
2022/09/19 11:40:47;;;;;;;4.75;1.80;;;;;;;24.75;32.77;100530.19;5032726;28;20045;-86
2022/09/19 11:43:32;;;;;;;3.83;1.60;;;;;;;25.00;34.02;100527.75;5027892;28;20526;-87
2022/09/19 11:46:31;;;;;;;2.83;1.75;;;;;;;25.09;32.50;100533.84;5035895;28;20053;-87
2022/09/19 11:49:39;;;;;;;2.70;1.80;;;;;;;25.04;32.46;100530.59;5035281;28;20471;-86
2022/09/19 11:52:28;;;;;;;2.35;1.67;;;;;;;25.36;33.75;100530.16;5037852;28;20406;-86
2022/09/19 11:55:31;;;;;;;3.85;2.10;;;;;;;25.32;32.92;100534.94;5049298;28;20340;-87
2022/09/19 11:58:38;;;;;;;6.55;2.78;;;;;;;25.34;33.46;100519.34;5039509;28;20049;-86
2022/09/19 12:01:35;;;;;;;6.07;2.55;;;;;;;25.39;33.77;100525.78;5046517;28;20049;-86
2022/09/19 12:04:34;;;;;;;3.17;2.40;;;;;;;25.33;34.28;100525.34;5047329;28;20606;-86
2022/09/19 12:07:18;;;;;;;4.63;2.72;;;;;;;25.43;33.03;100527.44;5050634;28;20047;-85
2022/09/19 12:09:55;;;;;;;2.75;1.73;;;;;;;25.43;32.83;100521.03;5040499;28;20040;-87
2022/09/19 12:12:27;;;;;;;3.20;1.63;;;;;;;25.76;31.20;100522.97;5037397;28;20048;-87
2022/09/19 12:15:22;;;;;;;1.77;1.13;;;;;;;26.00;31.88;100512.38;5047498;28;20401;-85
2022/09/19 12:18:11;;;;;;;2.17;1.57;;;;;;;25.75;30.75;100512.97;5053259;28;20064;-87
2022/09/19 12:20:49;;;;;;;2.15;1.42;;;;;;;25.74;31.34;100514.16;5027261;28;20299;-86
2022/09/19 12:27:03;;;;;;;3.28;1.20;;;;;;;26.25;30.68;100500.56;5035552;28;20049;-87
2022/09/19 12:29:48;;;;;;;2.13;1.65;;;;;;;26.40;29.84;100506.28;5043770;28;20044;-86
2022/09/19 12:32:26;;;;;;;3.22;1.52;;;;;;;26.50;31.04;100505.53;5047651;28;20380;-86
2022/09/19 12:35:18;;;;;;;1.63;1.00;;;;;;;26.65;30.50;100498.00;5048522;28;20040;-87